sensor_id;sensor_type;location;lat;lon;timestamp;P1;durP1;ratioP1;P2;durP2;ratioP2
56477;SDS011;42382;53.210;5.772;2024-01-30T00:01:37;27.80;;;19.27;;
56477;SDS011;42382;53.210;5.772;2024-01-30T00:04:03;31.50;;;19.42;;
56477;SDS011;42382;53.210;5.772;2024-01-30T00:06:28;26.70;;;19.48;;
56477;SDS011;42382;53.210;5.772;2024-01-30T00:08:54;31.48;;;19.80;;
56477;SDS011;42382;53.210;5.772;2024-01-30T00:11:19;26.90;;;18.50;;
56477;SDS011;42382;53.210;5.772;2024-01-30T00:13:46;29.50;;;19.80;;
56477;SDS011;42382;53.210;5.772;2024-01-30T00:16:21;27.90;;;18.83;;
56477;SDS011;42382;53.210;5.772;2024-01-30T00:18:53;29.30;;;19.92;;
56477;SDS011;42382;53.210;5.772;2024-01-30T00:21:19;29.08;;;19.15;;
56477;SDS011;42382;53.210;5.772;2024-01-30T00:23:45;31.08;;;20.90;;
56477;SDS011;42382;53.210;5.772;2024-01-30T00:26:11;27.33;;;18.65;;
56477;SDS011;42382;53.210;5.772;2024-01-30T00:28:38;28.15;;;20.63;;
56477;SDS011;42382;53.210;5.772;2024-01-30T00:31:03;29.25;;;19.65;;
56477;SDS011;42382;53.210;5.772;2024-01-30T00:33:29;34.20;;;19.45;;
56477;SDS011;42382;53.210;5.772;2024-01-30T00:35:55;30.73;;;20.38;;
56477;SDS011;42382;53.210;5.772;2024-01-30T00:38:21;30.42;;;19.70;;
56477;SDS011;42382;53.210;5.772;2024-01-30T00:40:47;31.35;;;20.08;;
56477;SDS011;42382;53.210;5.772;2024-01-30T00:43:13;33.50;;;20.13;;
56477;SDS011;42382;53.210;5.772;2024-01-30T00:45:39;35.58;;;20.35;;
56477;SDS011;42382;53.210;5.772;2024-01-30T00:48:04;29.33;;;19.40;;
56477;SDS011;42382;53.210;5.772;2024-01-30T00:50:30;29.13;;;18.73;;
56477;SDS011;42382;53.210;5.772;2024-01-30T00:52:56;27.77;;;19.48;;
56477;SDS011;42382;53.210;5.772;2024-01-30T00:55:22;30.20;;;21.20;;
56477;SDS011;42382;53.210;5.772;2024-01-30T00:57:50;31.23;;;20.70;;
56477;SDS011;42382;53.210;5.772;2024-01-30T01:00:16;31.60;;;21.55;;
56477;SDS011;42382;53.210;5.772;2024-01-30T01:02:42;33.83;;;20.33;;
56477;SDS011;42382;53.210;5.772;2024-01-30T01:05:08;32.25;;;21.27;;
56477;SDS011;42382;53.210;5.772;2024-01-30T01:07:34;32.13;;;22.35;;
56477;SDS011;42382;53.210;5.772;2024-01-30T01:10:00;31.20;;;20.48;;
56477;SDS011;42382;53.210;5.772;2024-01-30T01:12:25;29.13;;;19.42;;
56477;SDS011;42382;53.210;5.772;2024-01-30T01:14:51;31.75;;;21.00;;
56477;SDS011;42382;53.210;5.772;2024-01-30T01:17:16;30.80;;;21.08;;
56477;SDS011;42382;53.210;5.772;2024-01-30T01:19:43;27.42;;;19.77;;
56477;SDS011;42382;53.210;5.772;2024-01-30T01:22:09;30.90;;;20.88;;
56477;SDS011;42382;53.210;5.772;2024-01-30T01:24:35;34.42;;;21.15;;
56477;SDS011;42382;53.210;5.772;2024-01-30T01:27:01;27.48;;;19.63;;
56477;SDS011;42382;53.210;5.772;2024-01-30T01:29:27;34.00;;;22.42;;
56477;SDS011;42382;53.210;5.772;2024-01-30T01:31:55;30.40;;;21.02;;
56477;SDS011;42382;53.210;5.772;2024-01-30T01:34:21;31.55;;;21.13;;
56477;SDS011;42382;53.210;5.772;2024-01-30T01:36:47;29.60;;;20.45;;
56477;SDS011;42382;53.210;5.772;2024-01-30T01:39:13;29.23;;;20.05;;
56477;SDS011;42382;53.210;5.772;2024-01-30T01:41:38;31.77;;;21.55;;
56477;SDS011;42382;53.210;5.772;2024-01-30T01:44:04;29.88;;;20.90;;
56477;SDS011;42382;53.210;5.772;2024-01-30T01:46:30;31.90;;;22.48;;
56477;SDS011;42382;53.210;5.772;2024-01-30T01:48:58;31.70;;;22.05;;
56477;SDS011;42382;53.210;5.772;2024-01-30T01:51:25;30.17;;;21.52;;
56477;SDS011;42382;53.210;5.772;2024-01-30T01:53:56;30.10;;;21.08;;
56477;SDS011;42382;53.210;5.772;2024-01-30T01:56:23;32.00;;;21.25;;
56477;SDS011;42382;53.210;5.772;2024-01-30T01:58:49;30.13;;;20.33;;
56477;SDS011;42382;53.210;5.772;2024-01-30T02:01:16;30.30;;;21.13;;
56477;SDS011;42382;53.210;5.772;2024-01-30T02:03:45;27.05;;;18.90;;
56477;SDS011;42382;53.210;5.772;2024-01-30T02:06:12;33.78;;;21.70;;
56477;SDS011;42382;53.210;5.772;2024-01-30T02:08:41;27.27;;;19.77;;
56477;SDS011;42382;53.210;5.772;2024-01-30T02:11:07;31.95;;;20.80;;
56477;SDS011;42382;53.210;5.772;2024-01-30T02:13:35;30.48;;;21.15;;
56477;SDS011;42382;53.210;5.772;2024-01-30T02:16:01;30.88;;;21.48;;
56477;SDS011;42382;53.210;5.772;2024-01-30T02:18:26;29.65;;;21.23;;
56477;SDS011;42382;53.210;5.772;2024-01-30T02:20:53;33.85;;;20.83;;
56477;SDS011;42382;53.210;5.772;2024-01-30T02:23:21;33.00;;;21.10;;
56477;SDS011;42382;53.210;5.772;2024-01-30T02:25:50;27.25;;;19.25;;
56477;SDS011;42382;53.210;5.772;2024-01-30T02:28:18;29.65;;;21.73;;
56477;SDS011;42382;53.210;5.772;2024-01-30T02:30:44;30.85;;;20.50;;
56477;SDS011;42382;53.210;5.772;2024-01-30T02:33:11;31.73;;;21.38;;
56477;SDS011;42382;53.210;5.772;2024-01-30T02:35:37;31.17;;;20.45;;
56477;SDS011;42382;53.210;5.772;2024-01-30T02:38:03;28.88;;;19.98;;
56477;SDS011;42382;53.210;5.772;2024-01-30T02:40:29;27.20;;;19.25;;
56477;SDS011;42382;53.210;5.772;2024-01-30T02:42:55;29.35;;;19.15;;
56477;SDS011;42382;53.210;5.772;2024-01-30T02:45:21;28.05;;;19.75;;
56477;SDS011;42382;53.210;5.772;2024-01-30T02:47:46;33.28;;;21.75;;
56477;SDS011;42382;53.210;5.772;2024-01-30T02:50:12;31.30;;;20.08;;
56477;SDS011;42382;53.210;5.772;2024-01-30T02:52:38;27.08;;;19.10;;
56477;SDS011;42382;53.210;5.772;2024-01-30T02:55:03;29.50;;;20.13;;
56477;SDS011;42382;53.210;5.772;2024-01-30T02:57:29;31.33;;;20.90;;
56477;SDS011;42382;53.210;5.772;2024-01-30T02:59:55;31.77;;;20.80;;
56477;SDS011;42382;53.210;5.772;2024-01-30T03:02:21;28.23;;;19.90;;
56477;SDS011;42382;53.210;5.772;2024-01-30T03:04:46;31.38;;;20.95;;
56477;SDS011;42382;53.210;5.772;2024-01-30T03:07:12;31.30;;;20.33;;
56477;SDS011;42382;53.210;5.772;2024-01-30T03:09:38;30.13;;;20.00;;
56477;SDS011;42382;53.210;5.772;2024-01-30T03:12:04;30.92;;;20.88;;
56477;SDS011;42382;53.210;5.772;2024-01-30T03:14:32;29.70;;;20.55;;
56477;SDS011;42382;53.210;5.772;2024-01-30T03:16:58;32.25;;;20.30;;
56477;SDS011;42382;53.210;5.772;2024-01-30T03:19:24;29.48;;;19.60;;
56477;SDS011;42382;53.210;5.772;2024-01-30T03:21:50;28.52;;;19.90;;
56477;SDS011;42382;53.210;5.772;2024-01-30T03:24:16;29.13;;;21.00;;
56477;SDS011;42382;53.210;5.772;2024-01-30T03:26:42;27.73;;;18.52;;
56477;SDS011;42382;53.210;5.772;2024-01-30T03:29:08;28.30;;;18.65;;
56477;SDS011;42382;53.210;5.772;2024-01-30T03:31:33;30.98;;;18.95;;
56477;SDS011;42382;53.210;5.772;2024-01-30T03:33:59;31.10;;;20.25;;
56477;SDS011;42382;53.210;5.772;2024-01-30T03:36:26;28.40;;;18.67;;
56477;SDS011;42382;53.210;5.772;2024-01-30T03:38:52;29.42;;;18.73;;
56477;SDS011;42382;53.210;5.772;2024-01-30T03:41:17;27.75;;;19.80;;
56477;SDS011;42382;53.210;5.772;2024-01-30T03:43:43;27.45;;;18.70;;
56477;SDS011;42382;53.210;5.772;2024-01-30T03:46:09;27.85;;;18.77;;
56477;SDS011;42382;53.210;5.772;2024-01-30T03:48:36;36.60;;;21.35;;
56477;SDS011;42382;53.210;5.772;2024-01-30T03:51:02;30.40;;;20.30;;
56477;SDS011;42382;53.210;5.772;2024-01-30T03:53:28;27.77;;;19.23;;
56477;SDS011;42382;53.210;5.772;2024-01-30T03:55:53;26.33;;;19.08;;
56477;SDS011;42382;53.210;5.772;2024-01-30T03:58:19;27.73;;;19.25;;
56477;SDS011;42382;53.210;5.772;2024-01-30T04:00:45;26.73;;;18.23;;
56477;SDS011;42382;53.210;5.772;2024-01-30T04:03:10;31.88;;;19.05;;
56477;SDS011;42382;53.210;5.772;2024-01-30T04:05:38;27.02;;;18.23;;
56477;SDS011;42382;53.210;5.772;2024-01-30T04:08:04;25.33;;;18.77;;
56477;SDS011;42382;53.210;5.772;2024-01-30T04:10:30;24.77;;;18.02;;
56477;SDS011;42382;53.210;5.772;2024-01-30T04:12:55;26.55;;;18.83;;
56477;SDS011;42382;53.210;5.772;2024-01-30T04:15:21;25.58;;;18.75;;
56477;SDS011;42382;53.210;5.772;2024-01-30T04:17:49;31.08;;;18.55;;
56477;SDS011;42382;53.210;5.772;2024-01-30T04:20:15;26.67;;;17.63;;
56477;SDS011;42382;53.210;5.772;2024-01-30T04:22:44;28.20;;;19.48;;
56477;SDS011;42382;53.210;5.772;2024-01-30T04:25:10;26.67;;;18.70;;
56477;SDS011;42382;53.210;5.772;2024-01-30T04:27:37;29.48;;;18.35;;
56477;SDS011;42382;53.210;5.772;2024-01-30T04:30:03;23.30;;;17.58;;
56477;SDS011;42382;53.210;5.772;2024-01-30T04:32:29;27.35;;;17.83;;
56477;SDS011;42382;53.210;5.772;2024-01-30T04:34:54;26.08;;;17.33;;
56477;SDS011;42382;53.210;5.772;2024-01-30T04:37:20;24.35;;;17.63;;
56477;SDS011;42382;53.210;5.772;2024-01-30T04:39:46;25.38;;;17.80;;
56477;SDS011;42382;53.210;5.772;2024-01-30T04:42:11;27.42;;;18.52;;
56477;SDS011;42382;53.210;5.772;2024-01-30T04:44:37;22.67;;;16.27;;
56477;SDS011;42382;53.210;5.772;2024-01-30T04:47:03;23.05;;;16.67;;
56477;SDS011;42382;53.210;5.772;2024-01-30T04:49:30;26.30;;;17.67;;
56477;SDS011;42382;53.210;5.772;2024-01-30T04:51:56;25.00;;;17.55;;
56477;SDS011;42382;53.210;5.772;2024-01-30T04:54:22;26.92;;;18.15;;
56477;SDS011;42382;53.210;5.772;2024-01-30T04:56:48;25.83;;;17.13;;
56477;SDS011;42382;53.210;5.772;2024-01-30T04:59:14;27.45;;;17.40;;
56477;SDS011;42382;53.210;5.772;2024-01-30T05:01:39;23.67;;;17.05;;
56477;SDS011;42382;53.210;5.772;2024-01-30T05:04:07;29.02;;;17.88;;
56477;SDS011;42382;53.210;5.772;2024-01-30T05:06:34;25.73;;;16.58;;
56477;SDS011;42382;53.210;5.772;2024-01-30T05:08:59;24.58;;;16.80;;
56477;SDS011;42382;53.210;5.772;2024-01-30T05:11:25;23.55;;;16.58;;
56477;SDS011;42382;53.210;5.772;2024-01-30T05:13:50;24.10;;;16.02;;
56477;SDS011;42382;53.210;5.772;2024-01-30T05:16:16;25.60;;;16.15;;
56477;SDS011;42382;53.210;5.772;2024-01-30T05:18:42;25.45;;;16.52;;
56477;SDS011;42382;53.210;5.772;2024-01-30T05:21:07;22.83;;;15.70;;
56477;SDS011;42382;53.210;5.772;2024-01-30T05:23:33;24.75;;;16.13;;
56477;SDS011;42382;53.210;5.772;2024-01-30T05:25:59;22.80;;;16.38;;
56477;SDS011;42382;53.210;5.772;2024-01-30T05:28:26;25.30;;;15.93;;
56477;SDS011;42382;53.210;5.772;2024-01-30T05:30:51;24.67;;;15.82;;
56477;SDS011;42382;53.210;5.772;2024-01-30T05:33:17;23.52;;;15.98;;
56477;SDS011;42382;53.210;5.772;2024-01-30T05:35:43;24.80;;;14.63;;
56477;SDS011;42382;53.210;5.772;2024-01-30T05:38:08;22.98;;;15.70;;
56477;SDS011;42382;53.210;5.772;2024-01-30T05:40:34;23.38;;;15.80;;
56477;SDS011;42382;53.210;5.772;2024-01-30T05:42:59;21.55;;;15.15;;
56477;SDS011;42382;53.210;5.772;2024-01-30T05:45:26;19.67;;;15.25;;
56477;SDS011;42382;53.210;5.772;2024-01-30T05:47:52;29.42;;;16.35;;
56477;SDS011;42382;53.210;5.772;2024-01-30T05:50:18;23.08;;;15.75;;
56477;SDS011;42382;53.210;5.772;2024-01-30T05:52:44;22.85;;;15.20;;
56477;SDS011;42382;53.210;5.772;2024-01-30T05:55:11;22.20;;;15.18;;
56477;SDS011;42382;53.210;5.772;2024-01-30T05:57:37;22.05;;;14.95;;
56477;SDS011;42382;53.210;5.772;2024-01-30T06:00:04;21.33;;;15.05;;
56477;SDS011;42382;53.210;5.772;2024-01-30T06:02:30;22.50;;;15.48;;
56477;SDS011;42382;53.210;5.772;2024-01-30T06:04:56;22.25;;;14.45;;
56477;SDS011;42382;53.210;5.772;2024-01-30T06:07:22;23.13;;;15.18;;
56477;SDS011;42382;53.210;5.772;2024-01-30T06:09:47;22.23;;;15.32;;
56477;SDS011;42382;53.210;5.772;2024-01-30T06:12:13;25.42;;;15.40;;
56477;SDS011;42382;53.210;5.772;2024-01-30T06:14:38;20.02;;;14.60;;
56477;SDS011;42382;53.210;5.772;2024-01-30T06:17:04;21.25;;;14.57;;
56477;SDS011;42382;53.210;5.772;2024-01-30T06:19:30;25.25;;;15.52;;
56477;SDS011;42382;53.210;5.772;2024-01-30T06:21:59;19.65;;;13.80;;
56477;SDS011;42382;53.210;5.772;2024-01-30T06:24:25;21.33;;;15.10;;
56477;SDS011;42382;53.210;5.772;2024-01-30T06:26:50;21.75;;;14.55;;
56477;SDS011;42382;53.210;5.772;2024-01-30T06:29:16;21.85;;;14.27;;
56477;SDS011;42382;53.210;5.772;2024-01-30T06:31:42;20.83;;;14.32;;
56477;SDS011;42382;53.210;5.772;2024-01-30T06:34:08;22.70;;;15.15;;
56477;SDS011;42382;53.210;5.772;2024-01-30T06:36:34;21.90;;;14.70;;
56477;SDS011;42382;53.210;5.772;2024-01-30T06:39:00;22.10;;;14.50;;
56477;SDS011;42382;53.210;5.772;2024-01-30T06:41:26;19.10;;;14.38;;
56477;SDS011;42382;53.210;5.772;2024-01-30T06:43:51;20.92;;;14.40;;
56477;SDS011;42382;53.210;5.772;2024-01-30T06:46:17;22.23;;;14.13;;
56477;SDS011;42382;53.210;5.772;2024-01-30T06:48:43;23.92;;;16.35;;
56477;SDS011;42382;53.210;5.772;2024-01-30T06:51:10;22.35;;;15.00;;
56477;SDS011;42382;53.210;5.772;2024-01-30T06:53:36;20.65;;;13.73;;
56477;SDS011;42382;53.210;5.772;2024-01-30T06:56:01;22.52;;;14.60;;
56477;SDS011;42382;53.210;5.772;2024-01-30T06:58:27;22.00;;;14.57;;
56477;SDS011;42382;53.210;5.772;2024-01-30T07:00:53;24.65;;;14.60;;
56477;SDS011;42382;53.210;5.772;2024-01-30T07:03:19;24.40;;;15.45;;
56477;SDS011;42382;53.210;5.772;2024-01-30T07:05:45;23.52;;;15.18;;
56477;SDS011;42382;53.210;5.772;2024-01-30T07:08:10;18.80;;;14.80;;
56477;SDS011;42382;53.210;5.772;2024-01-30T07:10:42;21.83;;;15.73;;
56477;SDS011;42382;53.210;5.772;2024-01-30T07:13:08;25.08;;;14.75;;
56477;SDS011;42382;53.210;5.772;2024-01-30T07:15:35;22.20;;;15.55;;
56477;SDS011;42382;53.210;5.772;2024-01-30T07:18:01;26.25;;;15.02;;
56477;SDS011;42382;53.210;5.772;2024-01-30T07:20:27;21.23;;;14.68;;
56477;SDS011;42382;53.210;5.772;2024-01-30T07:22:55;23.90;;;15.40;;
56477;SDS011;42382;53.210;5.772;2024-01-30T07:25:23;22.73;;;14.02;;
56477;SDS011;42382;53.210;5.772;2024-01-30T07:27:55;23.48;;;15.65;;
56477;SDS011;42382;53.210;5.772;2024-01-30T07:30:21;23.30;;;14.57;;
56477;SDS011;42382;53.210;5.772;2024-01-30T07:32:48;25.23;;;15.43;;
56477;SDS011;42382;53.210;5.772;2024-01-30T07:35:13;23.25;;;14.63;;
56477;SDS011;42382;53.210;5.772;2024-01-30T07:37:39;21.73;;;16.10;;
56477;SDS011;42382;53.210;5.772;2024-01-30T07:40:05;22.48;;;15.40;;
56477;SDS011;42382;53.210;5.772;2024-01-30T07:42:31;25.05;;;16.27;;
56477;SDS011;42382;53.210;5.772;2024-01-30T07:44:58;21.17;;;14.57;;
56477;SDS011;42382;53.210;5.772;2024-01-30T07:47:23;25.45;;;16.10;;
56477;SDS011;42382;53.210;5.772;2024-01-30T07:49:49;21.95;;;15.60;;
56477;SDS011;42382;53.210;5.772;2024-01-30T07:52:15;21.33;;;15.07;;
56477;SDS011;42382;53.210;5.772;2024-01-30T07:54:50;23.25;;;15.35;;
56477;SDS011;42382;53.210;5.772;2024-01-30T07:57:16;22.92;;;15.05;;
56477;SDS011;42382;53.210;5.772;2024-01-30T07:59:43;25.45;;;14.30;;
56477;SDS011;42382;53.210;5.772;2024-01-30T08:02:09;25.80;;;15.35;;
56477;SDS011;42382;53.210;5.772;2024-01-30T08:04:35;20.02;;;14.45;;
56477;SDS011;42382;53.210;5.772;2024-01-30T08:07:01;21.20;;;13.98;;
56477;SDS011;42382;53.210;5.772;2024-01-30T08:09:26;23.02;;;14.85;;
56477;SDS011;42382;53.210;5.772;2024-01-30T08:11:52;21.40;;;15.23;;
56477;SDS011;42382;53.210;5.772;2024-01-30T08:14:18;22.23;;;13.88;;
56477;SDS011;42382;53.210;5.772;2024-01-30T08:16:43;26.70;;;15.90;;
56477;SDS011;42382;53.210;5.772;2024-01-30T08:19:09;23.58;;;14.93;;
56477;SDS011;42382;53.210;5.772;2024-01-30T08:21:35;22.40;;;14.20;;
56477;SDS011;42382;53.210;5.772;2024-01-30T08:24:04;21.52;;;13.60;;
56477;SDS011;42382;53.210;5.772;2024-01-30T08:26:31;23.83;;;14.20;;
56477;SDS011;42382;53.210;5.772;2024-01-30T08:28:57;18.38;;;13.15;;
56477;SDS011;42382;53.210;5.772;2024-01-30T08:31:23;22.55;;;13.57;;
56477;SDS011;42382;53.210;5.772;2024-01-30T08:33:49;22.27;;;13.13;;
56477;SDS011;42382;53.210;5.772;2024-01-30T08:36:15;22.25;;;12.85;;
56477;SDS011;42382;53.210;5.772;2024-01-30T08:38:42;25.90;;;13.23;;
56477;SDS011;42382;53.210;5.772;2024-01-30T08:41:07;26.08;;;13.65;;
56477;SDS011;42382;53.210;5.772;2024-01-30T08:43:33;20.75;;;13.18;;
56477;SDS011;42382;53.210;5.772;2024-01-30T08:45:59;18.80;;;11.85;;
56477;SDS011;42382;53.210;5.772;2024-01-30T08:48:25;18.65;;;12.02;;
56477;SDS011;42382;53.210;5.772;2024-01-30T08:50:51;18.92;;;12.98;;
56477;SDS011;42382;53.210;5.772;2024-01-30T08:53:17;18.52;;;12.38;;
56477;SDS011;42382;53.210;5.772;2024-01-30T08:55:42;24.00;;;13.00;;
56477;SDS011;42382;53.210;5.772;2024-01-30T08:58:08;20.40;;;11.52;;
56477;SDS011;42382;53.210;5.772;2024-01-30T09:00:36;24.05;;;11.95;;
56477;SDS011;42382;53.210;5.772;2024-01-30T09:03:02;21.52;;;11.77;;
56477;SDS011;42382;53.210;5.772;2024-01-30T09:05:28;23.38;;;12.50;;
56477;SDS011;42382;53.210;5.772;2024-01-30T09:07:54;18.42;;;12.02;;
56477;SDS011;42382;53.210;5.772;2024-01-30T09:10:19;23.95;;;12.10;;
56477;SDS011;42382;53.210;5.772;2024-01-30T09:12:45;20.50;;;12.20;;
56477;SDS011;42382;53.210;5.772;2024-01-30T09:15:11;25.38;;;12.05;;
56477;SDS011;42382;53.210;5.772;2024-01-30T09:17:37;20.27;;;11.32;;
56477;SDS011;42382;53.210;5.772;2024-01-30T09:20:03;26.58;;;12.48;;
56477;SDS011;42382;53.210;5.772;2024-01-30T09:22:32;20.20;;;11.65;;
56477;SDS011;42382;53.210;5.772;2024-01-30T09:24:58;23.27;;;12.18;;
56477;SDS011;42382;53.210;5.772;2024-01-30T09:27:23;19.25;;;11.82;;
56477;SDS011;42382;53.210;5.772;2024-01-30T09:29:49;20.45;;;11.25;;
56477;SDS011;42382;53.210;5.772;2024-01-30T09:32:15;18.52;;;12.52;;
56477;SDS011;42382;53.210;5.772;2024-01-30T09:34:40;17.60;;;12.07;;
56477;SDS011;42382;53.210;5.772;2024-01-30T09:37:07;20.00;;;12.68;;
56477;SDS011;42382;53.210;5.772;2024-01-30T09:39:33;20.77;;;12.57;;
56477;SDS011;42382;53.210;5.772;2024-01-30T09:42:02;19.42;;;11.63;;
56477;SDS011;42382;53.210;5.772;2024-01-30T09:44:45;21.77;;;12.77;;
56477;SDS011;42382;53.210;5.772;2024-01-30T09:47:15;21.25;;;12.30;;
56477;SDS011;42382;53.210;5.772;2024-01-30T09:49:42;17.45;;;12.07;;
56477;SDS011;42382;53.210;5.772;2024-01-30T09:52:09;19.00;;;11.43;;
56477;SDS011;42382;53.210;5.772;2024-01-30T09:54:35;18.10;;;11.23;;
56477;SDS011;42382;53.210;5.772;2024-01-30T09:57:03;18.13;;;11.00;;
56477;SDS011;42382;53.210;5.772;2024-01-30T09:59:29;20.65;;;11.90;;
56477;SDS011;42382;53.210;5.772;2024-01-30T10:01:55;19.65;;;11.40;;
56477;SDS011;42382;53.210;5.772;2024-01-30T10:04:21;27.00;;;10.43;;
56477;SDS011;42382;53.210;5.772;2024-01-30T10:06:47;19.55;;;9.07;;
56477;SDS011;42382;53.210;5.772;2024-01-30T10:09:13;21.73;;;8.90;;
56477;SDS011;42382;53.210;5.772;2024-01-30T10:11:38;19.88;;;7.90;;
56477;SDS011;42382;53.210;5.772;2024-01-30T10:14:04;17.52;;;7.22;;
56477;SDS011;42382;53.210;5.772;2024-01-30T10:16:30;17.20;;;6.45;;
56477;SDS011;42382;53.210;5.772;2024-01-30T10:18:55;20.23;;;6.88;;
56477;SDS011;42382;53.210;5.772;2024-01-30T10:21:21;17.75;;;5.63;;
56477;SDS011;42382;53.210;5.772;2024-01-30T10:23:47;16.15;;;5.15;;
56477;SDS011;42382;53.210;5.772;2024-01-30T10:26:13;18.70;;;5.10;;
56477;SDS011;42382;53.210;5.772;2024-01-30T10:28:41;12.45;;;4.00;;
56477;SDS011;42382;53.210;5.772;2024-01-30T10:31:07;13.55;;;3.80;;
56477;SDS011;42382;53.210;5.772;2024-01-30T10:33:32;18.23;;;4.97;;
56477;SDS011;42382;53.210;5.772;2024-01-30T10:36:02;11.63;;;3.17;;
56477;SDS011;42382;53.210;5.772;2024-01-30T10:38:29;14.20;;;3.30;;
56477;SDS011;42382;53.210;5.772;2024-01-30T10:40:59;15.90;;;3.92;;
56477;SDS011;42382;53.210;5.772;2024-01-30T10:43:32;13.77;;;3.47;;
56477;SDS011;42382;53.210;5.772;2024-01-30T10:48:32;19.40;;;4.10;;
56477;SDS011;42382;53.210;5.772;2024-01-30T10:51:08;17.77;;;3.75;;
56477;SDS011;42382;53.210;5.772;2024-01-30T10:53:35;17.35;;;3.10;;
56477;SDS011;42382;53.210;5.772;2024-01-30T10:56:02;13.82;;;2.58;;
56477;SDS011;42382;53.210;5.772;2024-01-30T10:58:29;13.90;;;2.95;;
56477;SDS011;42382;53.210;5.772;2024-01-30T11:00:55;9.48;;;2.75;;
56477;SDS011;42382;53.210;5.772;2024-01-30T11:03:22;11.23;;;2.47;;
56477;SDS011;42382;53.210;5.772;2024-01-30T11:05:49;14.52;;;2.35;;
56477;SDS011;42382;53.210;5.772;2024-01-30T11:08:26;7.85;;;1.52;;
56477;SDS011;42382;53.210;5.772;2024-01-30T11:10:56;10.30;;;1.55;;
56477;SDS011;42382;53.210;5.772;2024-01-30T11:13:26;9.85;;;1.63;;
56477;SDS011;42382;53.210;5.772;2024-01-30T11:15:55;9.40;;;2.08;;
56477;SDS011;42382;53.210;5.772;2024-01-30T11:18:26;7.30;;;0.98;;
56477;SDS011;42382;53.210;5.772;2024-01-30T11:20:58;11.20;;;1.48;;
56477;SDS011;42382;53.210;5.772;2024-01-30T11:23:27;6.70;;;1.85;;
56477;SDS011;42382;53.210;5.772;2024-01-30T11:25:53;6.78;;;0.88;;
56477;SDS011;42382;53.210;5.772;2024-01-30T11:28:20;8.60;;;1.83;;
56477;SDS011;42382;53.210;5.772;2024-01-30T11:30:47;9.27;;;1.73;;
56477;SDS011;42382;53.210;5.772;2024-01-30T11:33:30;8.82;;;1.20;;
56477;SDS011;42382;53.210;5.772;2024-01-30T11:35:57;8.32;;;0.93;;
56477;SDS011;42382;53.210;5.772;2024-01-30T11:38:27;8.05;;;1.33;;
56477;SDS011;42382;53.210;5.772;2024-01-30T11:40:54;6.07;;;0.88;;
56477;SDS011;42382;53.210;5.772;2024-01-30T11:43:23;7.22;;;1.08;;
56477;SDS011;42382;53.210;5.772;2024-01-30T11:45:49;10.30;;;1.45;;
56477;SDS011;42382;53.210;5.772;2024-01-30T11:48:14;5.93;;;0.80;;
56477;SDS011;42382;53.210;5.772;2024-01-30T11:50:40;6.95;;;0.95;;
56477;SDS011;42382;53.210;5.772;2024-01-30T11:53:06;7.35;;;1.20;;
56477;SDS011;42382;53.210;5.772;2024-01-30T11:55:32;14.05;;;1.83;;
56477;SDS011;42382;53.210;5.772;2024-01-30T11:57:58;6.28;;;0.75;;
56477;SDS011;42382;53.210;5.772;2024-01-30T12:00:24;11.93;;;1.45;;
56477;SDS011;42382;53.210;5.772;2024-01-30T12:02:50;8.75;;;1.27;;
56477;SDS011;42382;53.210;5.772;2024-01-30T12:05:20;9.15;;;1.30;;
56477;SDS011;42382;53.210;5.772;2024-01-30T12:07:46;12.70;;;1.27;;
56477;SDS011;42382;53.210;5.772;2024-01-30T12:10:12;6.90;;;1.20;;
56477;SDS011;42382;53.210;5.772;2024-01-30T12:12:44;11.05;;;1.52;;
56477;SDS011;42382;53.210;5.772;2024-01-30T12:15:12;9.25;;;1.02;;
56477;SDS011;42382;53.210;5.772;2024-01-30T12:17:38;5.43;;;0.80;;
56477;SDS011;42382;53.210;5.772;2024-01-30T12:22:36;11.20;;;1.00;;
56477;SDS011;42382;53.210;5.772;2024-01-30T12:25:07;8.70;;;0.98;;
56477;SDS011;42382;53.210;5.772;2024-01-30T12:27:39;9.45;;;1.10;;
56477;SDS011;42382;53.210;5.772;2024-01-30T12:30:13;6.63;;;0.82;;
56477;SDS011;42382;53.210;5.772;2024-01-30T12:32:40;6.43;;;0.70;;
56477;SDS011;42382;53.210;5.772;2024-01-30T12:35:09;5.18;;;0.60;;
56477;SDS011;42382;53.210;5.772;2024-01-30T12:37:37;6.75;;;0.65;;
56477;SDS011;42382;53.210;5.772;2024-01-30T12:40:03;7.18;;;0.88;;
56477;SDS011;42382;53.210;5.772;2024-01-30T12:42:29;6.35;;;1.15;;
56477;SDS011;42382;53.210;5.772;2024-01-30T12:44:56;7.82;;;0.90;;
56477;SDS011;42382;53.210;5.772;2024-01-30T12:47:22;4.32;;;0.50;;
56477;SDS011;42382;53.210;5.772;2024-01-30T12:49:48;6.45;;;0.68;;
56477;SDS011;42382;53.210;5.772;2024-01-30T12:52:16;3.78;;;0.68;;
56477;SDS011;42382;53.210;5.772;2024-01-30T12:54:41;7.07;;;0.60;;
56477;SDS011;42382;53.210;5.772;2024-01-30T12:57:07;6.47;;;0.88;;
56477;SDS011;42382;53.210;5.772;2024-01-30T12:59:33;9.13;;;1.00;;
56477;SDS011;42382;53.210;5.772;2024-01-30T13:02:00;6.70;;;0.50;;
56477;SDS011;42382;53.210;5.772;2024-01-30T13:04:27;5.03;;;0.70;;
56477;SDS011;42382;53.210;5.772;2024-01-30T13:06:52;8.75;;;0.98;;
56477;SDS011;42382;53.210;5.772;2024-01-30T13:09:18;7.72;;;0.85;;
56477;SDS011;42382;53.210;5.772;2024-01-30T13:11:44;6.82;;;0.50;;
56477;SDS011;42382;53.210;5.772;2024-01-30T13:14:09;4.10;;;0.50;;
56477;SDS011;42382;53.210;5.772;2024-01-30T13:16:35;4.22;;;0.50;;
56477;SDS011;42382;53.210;5.772;2024-01-30T13:19:01;6.68;;;0.55;;
56477;SDS011;42382;53.210;5.772;2024-01-30T13:21:27;6.25;;;0.50;;
56477;SDS011;42382;53.210;5.772;2024-01-30T13:23:53;2.22;;;0.40;;
56477;SDS011;42382;53.210;5.772;2024-01-30T13:26:19;3.30;;;0.70;;
56477;SDS011;42382;53.210;5.772;2024-01-30T13:28:46;3.22;;;0.40;;
56477;SDS011;42382;53.210;5.772;2024-01-30T13:31:12;6.40;;;0.70;;
56477;SDS011;42382;53.210;5.772;2024-01-30T13:33:39;1.40;;;0.43;;
56477;SDS011;42382;53.210;5.772;2024-01-30T13:36:05;2.42;;;0.50;;
56477;SDS011;42382;53.210;5.772;2024-01-30T13:38:31;4.53;;;0.82;;
56477;SDS011;42382;53.210;5.772;2024-01-30T13:40:58;7.28;;;0.98;;
56477;SDS011;42382;53.210;5.772;2024-01-30T13:43:23;5.30;;;0.88;;
56477;SDS011;42382;53.210;5.772;2024-01-30T13:45:49;6.05;;;1.20;;
56477;SDS011;42382;53.210;5.772;2024-01-30T13:48:14;5.82;;;1.33;;
56477;SDS011;42382;53.210;5.772;2024-01-30T13:50:40;6.25;;;1.00;;
56477;SDS011;42382;53.210;5.772;2024-01-30T13:53:05;9.07;;;1.92;;
56477;SDS011;42382;53.210;5.772;2024-01-30T13:55:31;5.00;;;0.88;;
56477;SDS011;42382;53.210;5.772;2024-01-30T13:57:57;4.80;;;1.00;;
56477;SDS011;42382;53.210;5.772;2024-01-30T14:00:22;5.95;;;1.13;;
56477;SDS011;42382;53.210;5.772;2024-01-30T14:02:50;4.93;;;0.95;;
56477;SDS011;42382;53.210;5.772;2024-01-30T14:05:16;6.82;;;1.25;;
56477;SDS011;42382;53.210;5.772;2024-01-30T14:07:42;9.07;;;1.10;;
56477;SDS011;42382;53.210;5.772;2024-01-30T14:10:09;5.10;;;1.27;;
56477;SDS011;42382;53.210;5.772;2024-01-30T14:12:39;6.00;;;1.50;;
56477;SDS011;42382;53.210;5.772;2024-01-30T14:15:04;6.03;;;1.20;;
56477;SDS011;42382;53.210;5.772;2024-01-30T14:17:31;9.43;;;1.23;;
56477;SDS011;42382;53.210;5.772;2024-01-30T14:19:57;8.20;;;0.98;;
56477;SDS011;42382;53.210;5.772;2024-01-30T14:22:22;8.20;;;1.30;;
56477;SDS011;42382;53.210;5.772;2024-01-30T14:24:48;3.55;;;0.60;;
56477;SDS011;42382;53.210;5.772;2024-01-30T14:27:13;3.10;;;0.70;;
56477;SDS011;42382;53.210;5.772;2024-01-30T14:29:39;4.68;;;0.98;;